sensor_id;sensor_type;location;lat;lon;timestamp;pressure;altitude;pressure_sealevel;temperature;humidity
56334;BME280;42240;53.626;55.886;2024-01-30T00:00:50;78548.50;;;-145.10;100.00
56334;BME280;42240;53.626;55.886;2024-01-30T00:02:27;78532.69;;;-145.10;100.00
56334;BME280;42240;53.626;55.886;2024-01-30T00:04:00;78532.69;;;-145.10;100.00
56334;BME280;42240;53.626;55.886;2024-01-30T00:05:34;78536.66;;;-145.10;100.00
56334;BME280;42240;53.626;55.886;2024-01-30T00:07:07;78542.59;;;-145.10;100.00
56334;BME280;42240;53.626;55.886;2024-01-30T00:08:40;78550.50;;;-145.10;100.00
56334;BME280;42240;53.626;55.886;2024-01-30T00:10:14;78544.56;;;-145.10;100.00
56334;BME280;42240;53.626;55.886;2024-01-30T00:11:48;78550.50;;;-145.10;100.00
56334;BME280;42240;53.626;55.886;2024-01-30T00:13:21;78524.78;;;-145.10;100.00
56334;BME280;42240;53.626;55.886;2024-01-30T00:14:56;78510.94;;;-145.10;100.00
56334;BME280;42240;53.626;55.886;2024-01-30T00:16:29;78501.03;;;-145.10;100.00
56334;BME280;42240;53.626;55.886;2024-01-30T00:18:01;78475.31;;;-145.10;100.00
56334;BME280;42240;53.626;55.886;2024-01-30T00:19:35;78453.56;;;-145.10;100.00
56334;BME280;42240;53.626;55.886;2024-01-30T00:21:08;78469.38;;;-145.10;100.00
56334;BME280;42240;53.626;55.886;2024-01-30T00:22:42;78503.00;;;-145.10;100.00
56334;BME280;42240;53.626;55.886;2024-01-30T00:24:15;78510.94;;;-145.10;100.00
56334;BME280;42240;53.626;55.886;2024-01-30T00:25:59;78512.91;;;-145.10;100.00
56334;BME280;42240;53.626;55.886;2024-01-30T00:27:32;78524.78;;;-145.10;100.00
56334;BME280;42240;53.626;55.886;2024-01-30T00:29:06;78526.75;;;-145.10;100.00
56334;BME280;42240;53.626;55.886;2024-01-30T00:30:39;78536.66;;;-145.10;100.00
56334;BME280;42240;53.626;55.886;2024-01-30T00:32:13;78540.59;;;-145.10;100.00
56334;BME280;42240;53.626;55.886;2024-01-30T00:33:46;78520.81;;;-145.10;100.00
56334;BME280;42240;53.626;55.886;2024-01-30T00:35:19;78495.09;;;-145.10;100.00
56334;BME280;42240;53.626;55.886;2024-01-30T00:36:54;78483.22;;;-145.10;100.00
56334;BME280;42240;53.626;55.886;2024-01-30T00:38:28;78455.53;;;-145.10;100.00
56334;BME280;42240;53.626;55.886;2024-01-30T00:40:01;78451.56;;;-145.10;100.00
56334;BME280;42240;53.626;55.886;2024-01-30T00:41:35;78455.53;;;-145.10;100.00
56334;BME280;42240;53.626;55.886;2024-01-30T00:43:08;78447.63;;;-145.10;100.00
56334;BME280;42240;53.626;55.886;2024-01-30T00:44:41;78451.56;;;-145.10;100.00
56334;BME280;42240;53.626;55.886;2024-01-30T00:46:14;78443.66;;;-145.10;100.00
56334;BME280;42240;53.626;55.886;2024-01-30T00:47:48;78453.56;;;-145.10;100.00
56334;BME280;42240;53.626;55.886;2024-01-30T00:49:22;78437.72;;;-145.10;100.00
56334;BME280;42240;53.626;55.886;2024-01-30T00:50:55;78431.78;;;-145.10;100.00
56334;BME280;42240;53.626;55.886;2024-01-30T00:52:29;78419.94;;;-145.10;100.00
56334;BME280;42240;53.626;55.886;2024-01-30T00:54:02;78429.81;;;-145.10;100.00
56334;BME280;42240;53.626;55.886;2024-01-30T00:55:35;78412.00;;;-145.10;100.00
56334;BME280;42240;53.626;55.886;2024-01-30T00:57:09;78400.13;;;-145.10;100.00
56334;BME280;42240;53.626;55.886;2024-01-30T00:58:42;78386.28;;;-145.10;100.00
56334;BME280;42240;53.626;55.886;2024-01-30T01:00:15;78372.44;;;-145.10;100.00
56334;BME280;42240;53.626;55.886;2024-01-30T01:01:53;78374.44;;;-145.10;100.00
56334;BME280;42240;53.626;55.886;2024-01-30T01:03:26;78360.56;;;-145.10;100.00
56334;BME280;42240;53.626;55.886;2024-01-30T01:05:00;78354.63;;;-145.10;100.00
56334;BME280;42240;53.626;55.886;2024-01-30T01:06:33;78360.56;;;-145.10;100.00
56334;BME280;42240;53.626;55.886;2024-01-30T01:08:06;78372.44;;;-145.10;100.00
56334;BME280;42240;53.626;55.886;2024-01-30T01:09:40;78354.63;;;-145.10;100.00
56334;BME280;42240;53.626;55.886;2024-01-30T01:11:13;78360.56;;;-145.10;100.00
56334;BME280;42240;53.626;55.886;2024-01-30T01:12:47;78354.63;;;-145.10;100.00
56334;BME280;42240;53.626;55.886;2024-01-30T01:14:20;78362.56;;;-145.10;100.00
56334;BME280;42240;53.626;55.886;2024-01-30T01:15:53;78364.53;;;-145.10;100.00
56334;BME280;42240;53.626;55.886;2024-01-30T01:17:26;78356.63;;;-145.10;100.00
56334;BME280;42240;53.626;55.886;2024-01-30T01:18:59;78332.88;;;-145.10;100.00
56334;BME280;42240;53.626;55.886;2024-01-30T01:20:33;78323.00;;;-145.10;100.00
56334;BME280;42240;53.626;55.886;2024-01-30T01:22:06;78317.06;;;-145.10;100.00
56334;BME280;42240;53.626;55.886;2024-01-30T01:23:39;78342.78;;;-145.10;100.00
56334;BME280;42240;53.626;55.886;2024-01-30T01:25:13;78344.75;;;-145.10;100.00
56334;BME280;42240;53.626;55.886;2024-01-30T01:26:45;78332.88;;;-145.10;100.00
56334;BME280;42240;53.626;55.886;2024-01-30T01:28:18;78324.97;;;-145.10;100.00
56334;BME280;42240;53.626;55.886;2024-01-30T01:29:51;78324.97;;;-145.10;100.00
56334;BME280;42240;53.626;55.886;2024-01-30T01:31:23;78328.94;;;-145.10;100.00
56334;BME280;42240;53.626;55.886;2024-01-30T01:32:57;78299.25;;;-145.10;100.00
56334;BME280;42240;53.626;55.886;2024-01-30T01:34:33;78293.31;;;-145.10;100.00
56334;BME280;42240;53.626;55.886;2024-01-30T01:36:07;78285.41;;;-145.10;100.00
56334;BME280;42240;53.626;55.886;2024-01-30T01:37:39;78277.50;;;-145.10;100.00
56334;BME280;42240;53.626;55.886;2024-01-30T01:39:12;78301.22;;;-145.10;100.00
56334;BME280;42240;53.626;55.886;2024-01-30T01:40:45;78281.44;;;-145.10;100.00
56334;BME280;42240;53.626;55.886;2024-01-30T01:42:18;78293.31;;;-145.10;100.00
56334;BME280;42240;53.626;55.886;2024-01-30T01:43:51;78283.44;;;-145.10;100.00
56334;BME280;42240;53.626;55.886;2024-01-30T01:45:23;78273.53;;;-145.10;100.00
56334;BME280;42240;53.626;55.886;2024-01-30T01:46:56;78265.63;;;-145.10;100.00
56334;BME280;42240;53.626;55.886;2024-01-30T01:48:29;78275.50;;;-145.10;100.00
56334;BME280;42240;53.626;55.886;2024-01-30T01:50:02;78289.34;;;-145.10;100.00
56334;BME280;42240;53.626;55.886;2024-01-30T01:51:36;78289.34;;;-145.10;100.00
56334;BME280;42240;53.626;55.886;2024-01-30T01:53:09;78293.31;;;-145.10;100.00
56334;BME280;42240;53.626;55.886;2024-01-30T01:54:42;78309.13;;;-145.10;100.00
56334;BME280;42240;53.626;55.886;2024-01-30T01:56:15;78299.25;;;-145.10;100.00
56334;BME280;42240;53.626;55.886;2024-01-30T01:57:48;78285.41;;;-145.10;100.00
56334;BME280;42240;53.626;55.886;2024-01-30T01:59:21;78293.31;;;-145.10;100.00
56334;BME280;42240;53.626;55.886;2024-01-30T02:00:54;78303.22;;;-145.10;100.00
56334;BME280;42240;53.626;55.886;2024-01-30T02:02:30;78279.47;;;-145.10;100.00
56334;BME280;42240;53.626;55.886;2024-01-30T02:04:04;78287.38;;;-145.10;100.00
56334;BME280;42240;53.626;55.886;2024-01-30T02:05:38;78297.28;;;-145.10;100.00
56334;BME280;42240;53.626;55.886;2024-01-30T02:07:11;78291.34;;;-145.10;100.00
56334;BME280;42240;53.626;55.886;2024-01-30T02:08:45;78297.28;;;-145.10;100.00
56334;BME280;42240;53.626;55.886;2024-01-30T02:10:18;78293.31;;;-145.10;100.00
56334;BME280;42240;53.626;55.886;2024-01-30T02:11:51;78295.28;;;-145.10;100.00
56334;BME280;42240;53.626;55.886;2024-01-30T02:13:25;78273.53;;;-145.10;100.00
56334;BME280;42240;53.626;55.886;2024-01-30T02:14:58;78293.31;;;-145.10;100.00
56334;BME280;42240;53.626;55.886;2024-01-30T02:16:32;78277.50;;;-145.10;100.00
56334;BME280;42240;53.626;55.886;2024-01-30T02:18:06;78279.47;;;-145.10;100.00
56334;BME280;42240;53.626;55.886;2024-01-30T02:19:59;78289.34;;;-145.10;100.00
56334;BME280;42240;53.626;55.886;2024-01-30T02:21:34;78283.44;;;-145.10;100.00
56334;BME280;42240;53.626;55.886;2024-01-30T02:23:07;78295.28;;;-145.10;100.00
56334;BME280;42240;53.626;55.886;2024-01-30T02:24:41;78299.25;;;-145.10;100.00
56334;BME280;42240;53.626;55.886;2024-01-30T02:26:17;78311.13;;;-145.10;100.00
56334;BME280;42240;53.626;55.886;2024-01-30T02:27:50;78281.44;;;-145.10;100.00
56334;BME280;42240;53.626;55.886;2024-01-30T02:29:23;78328.94;;;-145.10;100.00
56334;BME280;42240;53.626;55.886;2024-01-30T02:30:56;78305.19;;;-145.10;100.00
56334;BME280;42240;53.626;55.886;2024-01-30T02:32:29;78321.00;;;-145.10;100.00
56334;BME280;42240;53.626;55.886;2024-01-30T02:34:03;78309.13;;;-145.10;100.00
56334;BME280;42240;53.626;55.886;2024-01-30T02:35:36;78293.31;;;-145.10;100.00
56334;BME280;42240;53.626;55.886;2024-01-30T02:37:09;78289.34;;;-145.10;100.00
56334;BME280;42240;53.626;55.886;2024-01-30T02:38:42;78289.34;;;-145.10;100.00
56334;BME280;42240;53.626;55.886;2024-01-30T02:40:16;78277.50;;;-145.10;100.00
56334;BME280;42240;53.626;55.886;2024-01-30T02:41:49;78271.56;;;-145.10;100.00
56334;BME280;42240;53.626;55.886;2024-01-30T02:43:22;78265.63;;;-145.10;100.00
56334;BME280;42240;53.626;55.886;2024-01-30T02:44:55;78263.63;;;-145.10;100.00
56334;BME280;42240;53.626;55.886;2024-01-30T02:46:28;78265.63;;;-145.10;100.00
56334;BME280;42240;53.626;55.886;2024-01-30T02:48:01;78273.53;;;-145.10;100.00
56334;BME280;42240;53.626;55.886;2024-01-30T02:49:35;78305.19;;;-145.10;100.00
56334;BME280;42240;53.626;55.886;2024-01-30T02:51:07;78277.50;;;-145.10;100.00
56334;BME280;42240;53.626;55.886;2024-01-30T02:52:40;78289.34;;;-145.10;100.00
56334;BME280;42240;53.626;55.886;2024-01-30T02:54:13;78283.44;;;-145.10;100.00
56334;BME280;42240;53.626;55.886;2024-01-30T02:55:50;78263.63;;;-145.10;100.00
56334;BME280;42240;53.626;55.886;2024-01-30T02:57:23;78305.19;;;-145.10;100.00
56334;BME280;42240;53.626;55.886;2024-01-30T02:58:56;78267.59;;;-145.10;100.00
56334;BME280;42240;53.626;55.886;2024-01-30T03:00:29;78265.63;;;-145.10;100.00
56334;BME280;42240;53.626;55.886;2024-01-30T03:02:03;78269.56;;;-145.10;100.00
56334;BME280;42240;53.626;55.886;2024-01-30T03:03:39;78269.56;;;-145.10;100.00
56334;BME280;42240;53.626;55.886;2024-01-30T03:05:13;78305.19;;;-145.10;100.00
56334;BME280;42240;53.626;55.886;2024-01-30T03:06:47;78301.22;;;-145.10;100.00
56334;BME280;42240;53.626;55.886;2024-01-30T03:08:20;78307.16;;;-145.10;100.00
56334;BME280;42240;53.626;55.886;2024-01-30T03:09:53;78293.31;;;-145.10;100.00
56334;BME280;42240;53.626;55.886;2024-01-30T03:11:29;78313.09;;;-145.10;100.00
56334;BME280;42240;53.626;55.886;2024-01-30T03:13:02;78297.28;;;-145.10;100.00
56334;BME280;42240;53.626;55.886;2024-01-30T03:14:39;78301.22;;;-145.10;100.00
56334;BME280;42240;53.626;55.886;2024-01-30T03:16:12;78277.50;;;-145.10;100.00
56334;BME280;42240;53.626;55.886;2024-01-30T03:17:45;78259.69;;;-145.10;100.00
56334;BME280;42240;53.626;55.886;2024-01-30T03:19:18;78275.50;;;-145.10;100.00
56334;BME280;42240;53.626;55.886;2024-01-30T03:20:51;78273.53;;;-145.10;100.00
56334;BME280;42240;53.626;55.886;2024-01-30T03:22:28;78297.28;;;-145.10;100.00
56334;BME280;42240;53.626;55.886;2024-01-30T03:24:23;78257.72;;;-145.10;100.00
56334;BME280;42240;53.626;55.886;2024-01-30T03:26:02;78263.63;;;-145.10;100.00
56334;BME280;42240;53.626;55.886;2024-01-30T03:27:52;78257.72;;;-145.10;100.00
56334;BME280;42240;53.626;55.886;2024-01-30T03:29:28;78297.28;;;-145.10;100.00
56334;BME280;42240;53.626;55.886;2024-01-30T03:31:01;78287.38;;;-145.10;100.00
56334;BME280;42240;53.626;55.886;2024-01-30T03:32:37;78297.28;;;-145.10;100.00
56334;BME280;42240;53.626;55.886;2024-01-30T03:34:10;78299.25;;;-145.10;100.00
56334;BME280;42240;53.626;55.886;2024-01-30T03:35:45;78275.50;;;-145.10;100.00
56334;BME280;42240;53.626;55.886;2024-01-30T03:37:22;78269.56;;;-145.10;100.00
56334;BME280;42240;53.626;55.886;2024-01-30T03:38:58;78265.63;;;-145.10;100.00
56334;BME280;42240;53.626;55.886;2024-01-30T03:40:34;78245.84;;;-145.10;100.00
56334;BME280;42240;53.626;55.886;2024-01-30T03:42:07;78253.75;;;-145.10;100.00
56334;BME280;42240;53.626;55.886;2024-01-30T03:43:41;78243.84;;;-145.10;100.00
56334;BME280;42240;53.626;55.886;2024-01-30T03:45:20;78241.88;;;-145.10;100.00
56334;BME280;42240;53.626;55.886;2024-01-30T03:46:53;78241.88;;;-145.10;100.00
56334;BME280;42240;53.626;55.886;2024-01-30T03:48:26;78241.88;;;-145.10;100.00
56334;BME280;42240;53.626;55.886;2024-01-30T03:49:59;78232.00;;;-145.10;100.00
56334;BME280;42240;53.626;55.886;2024-01-30T03:51:32;78230.00;;;-145.10;100.00
56334;BME280;42240;53.626;55.886;2024-01-30T03:53:08;78230.00;;;-145.10;100.00
56334;BME280;42240;53.626;55.886;2024-01-30T03:54:42;78235.94;;;-145.10;100.00
56334;BME280;42240;53.626;55.886;2024-01-30T03:56:15;78226.06;;;-145.10;100.00
56334;BME280;42240;53.626;55.886;2024-01-30T03:57:51;78230.00;;;-145.10;100.00
56334;BME280;42240;53.626;55.886;2024-01-30T03:59:27;78235.94;;;-145.10;100.00
56334;BME280;42240;53.626;55.886;2024-01-30T04:01:00;78232.00;;;-145.10;100.00
56334;BME280;42240;53.626;55.886;2024-01-30T04:02:33;78267.59;;;-145.10;100.00
56334;BME280;42240;53.626;55.886;2024-01-30T04:04:06;78235.94;;;-145.10;100.00
56334;BME280;42240;53.626;55.886;2024-01-30T04:05:41;78232.00;;;-145.10;100.00
56334;BME280;42240;53.626;55.886;2024-01-30T04:07:14;78239.91;;;-145.10;100.00
56334;BME280;42240;53.626;55.886;2024-01-30T04:08:48;78226.06;;;-145.10;100.00
56334;BME280;42240;53.626;55.886;2024-01-30T04:10:24;78249.78;;;-145.10;100.00
56334;BME280;42240;53.626;55.886;2024-01-30T04:11:58;78245.84;;;-145.10;100.00
56334;BME280;42240;53.626;55.886;2024-01-30T04:13:34;78247.81;;;-145.10;100.00
56334;BME280;42240;53.626;55.886;2024-01-30T04:15:08;78253.75;;;-145.10;100.00
56334;BME280;42240;53.626;55.886;2024-01-30T04:16:42;78265.63;;;-145.10;100.00
56334;BME280;42240;53.626;55.886;2024-01-30T04:18:15;78247.81;;;-145.10;100.00
56334;BME280;42240;53.626;55.886;2024-01-30T04:19:48;78241.88;;;-145.10;100.00
56334;BME280;42240;53.626;55.886;2024-01-30T04:21:21;78226.06;;;-145.10;100.00
56334;BME280;42240;53.626;55.886;2024-01-30T04:22:55;78249.78;;;-145.10;100.00
56334;BME280;42240;53.626;55.886;2024-01-30T04:24:33;78245.84;;;-145.10;100.00
56334;BME280;42240;53.626;55.886;2024-01-30T04:26:07;78237.94;;;-145.10;100.00
56334;BME280;42240;53.626;55.886;2024-01-30T04:27:40;78233.97;;;-145.10;100.00
56334;BME280;42240;53.626;55.886;2024-01-30T04:29:13;78226.06;;;-145.10;100.00
56334;BME280;42240;53.626;55.886;2024-01-30T04:30:49;78239.91;;;-145.10;100.00
56334;BME280;42240;53.626;55.886;2024-01-30T04:32:22;78218.16;;;-145.10;100.00
56334;BME280;42240;53.626;55.886;2024-01-30T04:34:01;78232.00;;;-145.10;100.00
56334;BME280;42240;53.626;55.886;2024-01-30T04:35:34;78239.91;;;-145.10;100.00
56334;BME280;42240;53.626;55.886;2024-01-30T04:37:07;78259.69;;;-145.10;100.00
56334;BME280;42240;53.626;55.886;2024-01-30T04:38:41;78245.84;;;-145.10;100.00
56334;BME280;42240;53.626;55.886;2024-01-30T04:40:14;78249.78;;;-145.10;100.00
56334;BME280;42240;53.626;55.886;2024-01-30T04:41:50;78220.13;;;-145.10;100.00
56334;BME280;42240;53.626;55.886;2024-01-30T04:43:23;78228.03;;;-145.10;100.00
56334;BME280;42240;53.626;55.886;2024-01-30T04:44:56;78204.28;;;-145.10;100.00
56334;BME280;42240;53.626;55.886;2024-01-30T04:46:29;78218.16;;;-145.10;100.00
56334;BME280;42240;53.626;55.886;2024-01-30T04:48:03;78235.94;;;-145.10;100.00
56334;BME280;42240;53.626;55.886;2024-01-30T04:49:36;78214.19;;;-145.10;100.00
56334;BME280;42240;53.626;55.886;2024-01-30T04:51:09;78208.25;;;-145.10;100.00
56334;BME280;42240;53.626;55.886;2024-01-30T04:52:42;78188.47;;;-145.10;100.00
56334;BME280;42240;53.626;55.886;2024-01-30T04:54:16;78194.41;;;-145.10;100.00
56334;BME280;42240;53.626;55.886;2024-01-30T04:55:49;78198.34;;;-145.10;100.00
56334;BME280;42240;53.626;55.886;2024-01-30T04:57:23;78160.78;;;-145.10;100.00
56334;BME280;42240;53.626;55.886;2024-01-30T04:58:56;78178.56;;;-145.10;100.00
56334;BME280;42240;53.626;55.886;2024-01-30T05:00:29;78178.56;;;-145.10;100.00
56334;BME280;42240;53.626;55.886;2024-01-30T05:02:02;78146.94;;;-145.10;100.00
56334;BME280;42240;53.626;55.886;2024-01-30T05:03:35;78142.97;;;-145.10;100.00
56334;BME280;42240;53.626;55.886;2024-01-30T05:05:10;78152.88;;;-145.10;100.00
56334;BME280;42240;53.626;55.886;2024-01-30T05:06:44;78170.66;;;-145.10;100.00
56334;BME280;42240;53.626;55.886;2024-01-30T05:08:17;78174.63;;;-145.10;100.00
56334;BME280;42240;53.626;55.886;2024-01-30T05:09:50;78174.63;;;-145.10;100.00
56334;BME280;42240;53.626;55.886;2024-01-30T05:11:24;78158.78;;;-145.10;100.00
56334;BME280;42240;53.626;55.886;2024-01-30T05:12:57;78142.97;;;-145.10;100.00
56334;BME280;42240;53.626;55.886;2024-01-30T05:14:31;78034.19;;;-145.10;100.00
56334;BME280;42240;53.626;55.886;2024-01-30T05:16:04;78061.88;;;-145.10;100.00
56334;BME280;42240;53.626;55.886;2024-01-30T05:17:37;78089.56;;;-145.10;100.00
56334;BME280;42240;53.626;55.886;2024-01-30T05:19:10;78044.06;;;-145.10;100.00
56334;BME280;42240;53.626;55.886;2024-01-30T05:20:43;78038.13;;;-145.10;100.00
56334;BME280;42240;53.626;55.886;2024-01-30T05:22:21;78063.84;;;-145.10;100.00
56334;BME280;42240;53.626;55.886;2024-01-30T05:23:55;78065.81;;;-145.10;100.00
56334;BME280;42240;53.626;55.886;2024-01-30T05:25:28;78065.81;;;-145.10;100.00
56334;BME280;42240;53.626;55.886;2024-01-30T05:27:01;78053.97;;;-145.10;100.00
56334;BME280;42240;53.626;55.886;2024-01-30T05:28:35;78059.88;;;-145.10;100.00
56334;BME280;42240;53.626;55.886;2024-01-30T05:30:09;78053.97;;;-145.10;100.00
56334;BME280;42240;53.626;55.886;2024-01-30T05:31:52;78038.13;;;-145.10;100.00
56334;BME280;42240;53.626;55.886;2024-01-30T05:33:25;78006.47;;;-145.10;100.00
56334;BME280;42240;53.626;55.886;2024-01-30T05:35:01;78059.88;;;-145.10;100.00
56334;BME280;42240;53.626;55.886;2024-01-30T05:36:34;78057.91;;;-145.10;100.00
56334;BME280;42240;53.626;55.886;2024-01-30T05:38:08;78063.84;;;-145.10;100.00
56334;BME280;42240;53.626;55.886;2024-01-30T05:39:41;78044.06;;;-145.10;100.00
56334;BME280;42240;53.626;55.886;2024-01-30T05:41:14;78067.81;;;-145.10;100.00
56334;BME280;42240;53.626;55.886;2024-01-30T05:42:47;78034.19;;;-145.10;100.00
56334;BME280;42240;53.626;55.886;2024-01-30T05:44:21;78038.13;;;-145.10;100.00
56334;BME280;42240;53.626;55.886;2024-01-30T05:45:54;78034.19;;;-145.10;100.00
56334;BME280;42240;53.626;55.886;2024-01-30T05:47:27;78012.41;;;-145.10;100.00
56334;BME280;42240;53.626;55.886;2024-01-30T05:49:00;77988.69;;;-145.10;100.00
56334;BME280;42240;53.626;55.886;2024-01-30T05:50:33;77982.75;;;-145.10;100.00
56334;BME280;42240;53.626;55.886;2024-01-30T05:52:06;77982.75;;;-145.10;100.00
56334;BME280;42240;53.626;55.886;2024-01-30T05:53:39;78020.31;;;-145.10;100.00
56334;BME280;42240;53.626;55.886;2024-01-30T05:55:12;77964.94;;;-145.10;100.00
56334;BME280;42240;53.626;55.886;2024-01-30T05:56:45;77994.63;;;-145.10;100.00
56334;BME280;42240;53.626;55.886;2024-01-30T05:58:18;77970.88;;;-145.10;100.00
56334;BME280;42240;53.626;55.886;2024-01-30T05:59:52;77962.97;;;-145.10;100.00
56334;BME280;42240;53.626;55.886;2024-01-30T06:01:24;77941.22;;;-145.10;100.00
56334;BME280;42240;53.626;55.886;2024-01-30T06:02:58;77994.63;;;-145.10;100.00
56334;BME280;42240;53.626;55.886;2024-01-30T06:04:30;77976.81;;;-145.10;100.00
56334;BME280;42240;53.626;55.886;2024-01-30T06:06:04;77984.72;;;-145.10;100.00
56334;BME280;42240;53.626;55.886;2024-01-30T06:07:37;77960.97;;;-145.10;100.00
56334;BME280;42240;53.626;55.886;2024-01-30T06:09:11;77960.97;;;-145.10;100.00
56334;BME280;42240;53.626;55.886;2024-01-30T06:10:45;77974.84;;;-145.10;100.00
56334;BME280;42240;53.626;55.886;2024-01-30T06:12:20;77978.78;;;-145.10;100.00
56334;BME280;42240;53.626;55.886;2024-01-30T06:13:53;77968.91;;;-145.10;100.00
56334;BME280;42240;53.626;55.886;2024-01-30T06:15:26;78032.19;;;-145.10;100.00
56334;BME280;42240;53.626;55.886;2024-01-30T06:17:02;77992.63;;;-145.10;100.00
56334;BME280;42240;53.626;55.886;2024-01-30T06:18:35;78010.44;;;-145.10;100.00
56334;BME280;42240;53.626;55.886;2024-01-30T06:20:08;77968.91;;;-145.10;100.00
56334;BME280;42240;53.626;55.886;2024-01-30T06:21:41;77968.91;;;-145.10;100.00
56334;BME280;42240;53.626;55.886;2024-01-30T06:23:14;77921.44;;;-145.10;99.63
56334;BME280;42240;53.626;55.886;2024-01-30T06:24:46;77905.59;;;-145.10;99.41
56334;BME280;42240;53.626;55.886;2024-01-30T06:26:22;77953.06;;;-145.10;98.37
56334;BME280;42240;53.626;55.886;2024-01-30T06:27:55;77927.34;;;-145.10;98.13
56334;BME280;42240;53.626;55.886;2024-01-30T06:29:28;77909.56;;;-145.10;98.03
56334;BME280;42240;53.626;55.886;2024-01-30T06:31:01;77953.06;;;-145.10;97.59
56334;BME280;42240;53.626;55.886;2024-01-30T06:32:37;77921.44;;;-145.10;97.84
56334;BME280;42240;53.626;55.886;2024-01-30T06:34:11;77873.94;;;-145.10;96.99
56334;BME280;42240;53.626;55.886;2024-01-30T06:35:44;77877.91;;;-145.10;96.10
56334;BME280;42240;53.626;55.886;2024-01-30T06:37:18;77870.00;;;-145.10;95.34
56334;BME280;42240;53.626;55.886;2024-01-30T06:38:51;77903.63;;;-145.10;95.99
56334;BME280;42240;53.626;55.886;2024-01-30T06:40:24;77907.56;;;-145.10;96.31
56334;BME280;42240;53.626;55.886;2024-01-30T06:41:57;77903.63;;;-145.10;96.78
56334;BME280;42240;53.626;55.886;2024-01-30T06:43:30;77941.22;;;-145.10;96.53
56334;BME280;42240;53.626;55.886;2024-01-30T06:45:03;77945.16;;;-145.10;96.20
56334;BME280;42240;53.626;55.886;2024-01-30T06:46:36;77972.84;;;-145.10;98.36
56334;BME280;42240;53.626;55.886;2024-01-30T06:48:10;77984.72;;;-145.10;98.86
56334;BME280;42240;53.626;55.886;2024-01-30T06:49:43;77917.47;;;-145.10;98.71
56334;BME280;42240;53.626;55.886;2024-01-30T06:51:17;77875.94;;;-145.10;97.56
56334;BME280;42240;53.626;55.886;2024-01-30T06:52:50;77927.34;;;-145.10;96.57
56334;BME280;42240;53.626;55.886;2024-01-30T06:54:23;77921.44;;;-145.10;95.89
56334;BME280;42240;53.626;55.886;2024-01-30T06:55:56;77917.47;;;-145.10;96.32
56334;BME280;42240;53.626;55.886;2024-01-30T06:57:29;77909.56;;;-145.10;96.77
56334;BME280;42240;53.626;55.886;2024-01-30T06:59:07;77903.63;;;-145.10;96.70
56334;BME280;42240;53.626;55.886;2024-01-30T07:00:41;77870.00;;;-145.10;95.71
56334;BME280;42240;53.626;55.886;2024-01-30T07:02:14;77844.28;;;-145.10;94.98
56334;BME280;42240;53.626;55.886;2024-01-30T07:03:50;77866.03;;;-145.10;94.81
56334;BME280;42240;53.626;55.886;2024-01-30T07:05:25;77905.59;;;-145.10;94.54
56334;BME280;42240;53.626;55.886;2024-01-30T07:06:57;77915.50;;;-145.10;94.97
56334;BME280;42240;53.626;55.886;2024-01-30T07:08:31;77852.19;;;-145.10;94.87
56334;BME280;42240;53.626;55.886;2024-01-30T07:10:04;77858.13;;;-145.10;93.79
56334;BME280;42240;53.626;55.886;2024-01-30T07:11:38;77844.28;;;-145.10;92.72
56334;BME280;42240;53.626;55.886;2024-01-30T07:13:14;77830.44;;;-145.10;91.45
56334;BME280;42240;53.626;55.886;2024-01-30T07:14:51;77822.53;;;-145.10;91.27
56334;BME280;42240;53.626;55.886;2024-01-30T07:16:24;77820.53;;;-145.10;89.73
56334;BME280;42240;53.626;55.886;2024-01-30T07:17:58;77810.66;;;-145.10;89.33
56334;BME280;42240;53.626;55.886;2024-01-30T07:19:34;77879.88;;;-145.10;90.00
56334;BME280;42240;53.626;55.886;2024-01-30T07:21:07;77864.06;;;-145.10;90.41
56334;BME280;42240;53.626;55.886;2024-01-30T07:22:40;77814.59;;;-145.10;90.79
56334;BME280;42240;53.626;55.886;2024-01-30T07:24:15;77820.53;;;-145.10;90.41
56334;BME280;42240;53.626;55.886;2024-01-30T07:25:48;77804.72;;;-145.10;89.83
56334;BME280;42240;53.626;55.886;2024-01-30T07:27:22;77814.59;;;-145.10;89.47
56334;BME280;42240;53.626;55.886;2024-01-30T07:28:55;77779.00;;;-145.10;89.41
56334;BME280;42240;53.626;55.886;2024-01-30T07:30:29;77826.47;;;-145.10;88.46
56334;BME280;42240;53.626;55.886;2024-01-30T07:32:02;77786.91;;;-145.10;88.77
56334;BME280;42240;53.626;55.886;2024-01-30T07:33:35;77806.69;;;-145.10;87.26
56334;BME280;42240;53.626;55.886;2024-01-30T07:35:08;77761.22;;;-145.10;86.95
56334;BME280;42240;53.626;55.886;2024-01-30T07:36:42;77723.63;;;-145.10;85.87
56334;BME280;42240;53.626;55.886;2024-01-30T07:38:14;77751.31;;;-145.10;86.01
56334;BME280;42240;53.626;55.886;2024-01-30T07:39:47;77751.31;;;-145.10;85.53
56334;BME280;42240;53.626;55.886;2024-01-30T07:41:21;77761.22;;;-145.10;85.97
56334;BME280;42240;53.626;55.886;2024-01-30T07:42:54;77747.34;;;-145.10;85.70
56334;BME280;42240;53.626;55.886;2024-01-30T07:44:27;77731.53;;;-145.10;85.04
56334;BME280;42240;53.626;55.886;2024-01-30T07:46:01;77735.50;;;-145.10;83.25
56334;BME280;42240;53.626;55.886;2024-01-30T07:47:35;77695.94;;;-145.10;83.42
56334;BME280;42240;53.626;55.886;2024-01-30T07:49:08;77729.56;;;-145.10;83.53
56334;BME280;42240;53.626;55.886;2024-01-30T07:50:42;77723.63;;;-145.10;82.41
56334;BME280;42240;53.626;55.886;2024-01-30T07:52:16;77729.56;;;-145.10;82.36
56334;BME280;42240;53.626;55.886;2024-01-30T07:53:49;77678.13;;;-145.10;82.16